Time;durP1;ratioP1;P1;durP2;ratioP2;P2;SDS_P1;SDS_P2;PMS_P1;PMS_P2;Temp;Humidity;BMP_temperature;BMP_pressure;BME280_temperature;BME280_humidity;BME280_pressure;Samples;Min_cycle;Max_cycle;Signal;HPM_P1;HPM_P2
2024/04/08 00:00:18;;;;;;;;;;;;;;;17.14;54.17;97470.69;5046200;28;19955;-82
2024/04/08 00:03:10;;;;;;;;;;;;;;;17.08;54.70;97471.34;5033187;28;19964;-82
2024/04/08 00:05:57;;;;;;;;;;;;;;;17.01;54.60;97480.25;5030726;28;19933;-82
2024/04/08 00:08:44;;;;;;;;;;;;;;;16.98;54.67;97472.72;5024284;28;19925;-82
2024/04/08 00:11:32;;;;;;;;;;;;;;;17.02;54.39;97468.91;5030802;28;19933;-80
2024/04/08 00:14:18;;;;;;;;;;;;;;;16.94;54.91;97475.44;5030638;28;19982;-80
2024/04/08 00:17:06;;;;;;;;;;;;;;;16.92;54.16;97474.19;5016482;28;19925;-81
2024/04/08 00:19:52;;;;;;;;;;;;;;;16.96;54.14;97477.81;5032669;28;20014;-80
2024/04/08 00:22:40;;;;;;;;;;;;;;;16.87;54.72;97477.22;5035848;28;19925;-82
2024/04/08 00:25:26;;;;;;;;;;;;;;;16.89;54.33;97466.69;5009269;28;19925;-82
2024/04/08 00:28:13;;;;;;;;;;;;;;;16.85;55.18;97463.88;5026877;28;20450;-81
2024/04/08 00:31:00;;;;;;;;;;;;;;;16.88;54.52;97465.88;5026678;28;19979;-82
2024/04/08 00:33:49;;;;;;;;;;;;;;;16.90;53.55;97454.56;5026788;28;19986;-83
2024/04/08 00:36:36;;;;;;;;;;;;;;;16.96;52.80;97450.38;5022716;28;19929;-83
2024/04/08 00:39:25;;;;;;;;;;;;;;;16.91;54.07;97451.44;5028803;28;19929;-85
2024/04/08 00:42:11;;;;;;;;;;;;;;;16.86;54.21;97464.69;5023173;28;19979;-84
2024/04/08 00:44:59;;;;;;;;;;;;;;;16.88;52.67;97449.41;5025433;28;20254;-84
2024/04/08 00:47:45;;;;;;;;;;;;;;;16.91;52.02;97445.16;5029865;28;20277;-85
2024/04/08 00:50:36;;;;;;;;;;;;;;;16.89;53.36;97448.28;5023762;28;19984;-85
2024/04/08 00:53:26;;;;;;;;;;;;;;;16.85;53.40;97441.16;5039108;28;19925;-83
2024/04/08 00:56:13;;;;;;;;;;;;;;;16.84;55.04;97445.06;5035014;28;19929;-85
2024/04/08 00:59:02;;;;;;;;;;;;;;;16.77;54.43;97441.00;5034718;28;19998;-84
2024/04/08 01:01:50;;;;;;;;;;;;;;;16.80;52.96;97433.22;5038682;28;19925;-85
2024/04/08 01:04:38;;;;;;;;;;;;;;;16.86;51.01;97426.25;5033663;28;19929;-85
2024/04/08 01:07:26;;;;;;;;;;;;;;;16.87;51.20;97420.41;5047537;28;19925;-83
2024/04/08 01:10:13;;;;;;;;;;;;;;;16.88;52.39;97421.97;5029843;28;19933;-79
2024/04/08 01:13:00;;;;;;;;;;;;;;;16.85;52.94;97436.44;5039189;28;19967;-80
2024/04/08 01:15:46;;;;;;;;;;;;;;;16.88;51.65;97432.97;5038024;28;19979;-81
2024/04/08 01:18:33;;;;;;;;;;;;;;;16.79;53.54;97439.84;5040614;28;19936;-81
2024/04/08 01:21:20;;;;;;;;;;;;;;;16.77;51.88;97451.97;5037159;28;19928;-81
2024/04/08 01:24:09;;;;;;;;;;;;;;;16.88;50.16;97451.38;5031905;28;19957;-79
2024/04/08 01:26:55;;;;;;;;;;;;;;;16.86;51.91;97456.44;5031336;28;19929;-78
2024/04/08 01:29:42;;;;;;;;;;;;;;;16.92;49.57;97446.75;5039578;28;20432;-81
2024/04/08 01:32:28;;;;;;;;;;;;;;;16.89;50.25;97451.03;5035192;28;19932;-80
2024/04/08 01:35:15;;;;;;;;;;;;;;;16.97;48.74;97443.72;5038408;28;20335;-83
2024/04/08 01:38:02;;;;;;;;;;;;;;;17.00;48.34;97448.47;5021126;28;19925;-82
2024/04/08 01:40:50;;;;;;;;;;;;;;;16.95;50.36;97452.31;5025024;28;20388;-81
2024/04/08 01:43:36;;;;;;;;;;;;;;;17.01;48.26;97444.56;5037411;28;19928;-81
2024/04/08 01:46:24;;;;;;;;;;;;;;;17.08;47.09;97428.22;5014905;28;19924;-82
2024/04/08 01:49:10;;;;;;;;;;;;;;;17.10;47.32;97428.66;5033672;28;19932;-83
2024/04/08 01:51:58;;;;;;;;;;;;;;;17.05;48.49;97433.66;5035192;28;20540;-84
2024/04/08 01:54:44;;;;;;;;;;;;;;;16.93;49.60;97442.84;5027127;28;20380;-84
2024/04/08 01:57:32;;;;;;;;;;;;;;;16.94;48.04;97458.19;5035334;28;19925;-84
2024/04/08 02:00:19;;;;;;;;;;;;;;;16.93;47.74;97508.69;5035606;28;19924;-85
2024/04/08 02:03:06;;;;;;;;;;;;;;;16.98;48.18;97528.41;5024958;28;19940;-85
2024/04/08 02:05:53;;;;;;;;;;;;;;;16.87;49.14;97515.63;5037203;28;19929;-84
2024/04/08 02:08:41;;;;;;;;;;;;;;;16.87;49.08;97499.97;5041255;28;19925;-81
2024/04/08 02:11:27;;;;;;;;;;;;;;;16.81;49.47;97544.53;5051530;28;19947;-82
2024/04/08 02:14:15;;;;;;;;;;;;;;;16.71;50.13;97543.94;5043354;28;19936;-83
2024/04/08 02:17:02;;;;;;;;;;;;;;;16.79;49.68;97494.72;5036926;28;20386;-84
2024/04/08 02:19:49;;;;;;;;;;;;;;;16.74;50.03;97524.03;5033816;28;20114;-90
2024/04/08 02:22:35;;;;;;;;;;;;;;;16.71;49.88;97535.72;5052052;28;20495;-89
2024/04/08 02:25:23;;;;;;;;;;;;;;;16.68;50.11;97509.00;5051178;28;20284;-90
2024/04/08 02:28:09;;;;;;;;;;;;;;;16.68;50.35;97519.97;5051812;28;19951;-90
2024/04/08 02:31:02;;;;;;;;;;;;;;;16.66;50.09;97494.81;5038933;28;19929;-90
2024/04/08 02:33:48;;;;;;;;;;;;;;;16.58;51.09;97487.63;5037097;28;19944;-92
2024/04/08 02:36:36;;;;;;;;;;;;;;;16.53;51.45;97485.16;5055327;28;19933;-90
2024/04/08 02:39:22;;;;;;;;;;;;;;;16.50;51.56;97474.91;5047374;28;19992;-88
2024/04/08 02:42:10;;;;;;;;;;;;;;;16.51;52.13;97479.22;5033876;28;19925;-92
2024/04/08 02:44:56;;;;;;;;;;;;;;;16.50;52.97;97483.13;5046380;28;19931;-90
2024/04/08 02:47:45;;;;;;;;;;;;;;;16.42;51.96;97484.16;5024628;28;20036;-89
2024/04/08 02:50:31;;;;;;;;;;;;;;;16.42;51.09;97475.94;5053237;28;19978;-90
2024/04/08 02:53:19;;;;;;;;;;;;;;;16.46;51.31;97474.06;5027475;28;19925;-90
2024/04/08 02:56:05;;;;;;;;;;;;;;;16.48;51.98;97485.44;5040329;28;19972;-90
2024/04/08 02:58:52;;;;;;;;;;;;;;;16.40;53.08;97489.19;5033808;28;19956;-88
2024/04/08 03:01:38;;;;;;;;;;;;;;;16.38;52.39;97472.31;5039686;28;20040;-88
2024/04/08 03:04:27;;;;;;;;;;;;;;;16.38;52.53;97462.13;5049422;28;19938;-88
2024/04/08 03:07:13;;;;;;;;;;;;;;;16.36;52.19;97463.66;5046474;28;19952;-88
2024/04/08 03:10:00;;;;;;;;;;;;;;;16.36;52.33;97466.41;5034697;28;19940;-88
2024/04/08 03:12:47;;;;;;;;;;;;;;;16.31;52.83;97480.41;5045029;28;19921;-89
2024/04/08 03:15:34;;;;;;;;;;;;;;;16.24;54.11;97484.56;5042100;28;19936;-88
2024/04/08 03:18:20;;;;;;;;;;;;;;;16.21;54.14;97487.22;5040006;28;19932;-90
2024/04/08 03:21:09;;;;;;;;;;;;;;;16.19;53.44;97476.63;5051679;28;19964;-88
2024/04/08 03:23:57;;;;;;;;;;;;;;;16.20;53.45;97480.97;5043218;28;19988;-89
2024/04/08 03:26:44;;;;;;;;;;;;;;;16.16;53.68;97480.06;5054030;28;19929;-88
2024/04/08 03:29:31;;;;;;;;;;;;;;;16.12;53.58;97492.91;5028801;28;19978;-87
2024/04/08 03:32:18;;;;;;;;;;;;;;;16.12;55.00;97490.16;5027960;28;20051;-85
2024/04/08 03:35:04;;;;;;;;;;;;;;;16.07;54.80;97490.44;5028996;28;19925;-87
2024/04/08 03:37:53;;;;;;;;;;;;;;;16.06;55.81;97493.53;5024391;28;20404;-86
2024/04/08 03:40:40;;;;;;;;;;;;;;;15.97;55.37;97491.78;5029998;28;19929;-87
2024/04/08 03:43:27;;;;;;;;;;;;;;;16.04;54.52;97488.44;5013761;28;19994;-87
2024/04/08 03:46:14;;;;;;;;;;;;;;;16.03;54.77;97496.97;5017480;28;20741;-87
2024/04/08 03:49:02;;;;;;;;;;;;;;;15.98;54.96;97498.88;5041678;28;19975;-86
2024/04/08 03:51:48;;;;;;;;;;;;;;;15.98;54.74;97493.38;5037327;28;19931;-87
2024/04/08 03:54:37;;;;;;;;;;;;;;;16.02;54.46;97492.66;5033179;28;19932;-87
2024/04/08 03:57:23;;;;;;;;;;;;;;;15.96;54.61;97490.19;5035421;28;19936;-86
2024/04/08 04:00:12;;;;;;;;;;;;;;;15.98;54.82;97489.84;5053313;28;19931;-85
2024/04/08 04:03:08;;;;;;;;;;;;;;;15.97;54.98;97480.81;5051640;28;20051;-87
2024/04/08 04:05:55;;;;;;;;;;;;;;;15.94;54.73;97481.53;5055466;28;19935;-87
2024/04/08 04:08:41;;;;;;;;;;;;;;;15.93;55.52;97485.44;5053430;28;19928;-83
2024/04/08 04:11:30;;;;;;;;;;;;;;;15.92;55.58;97494.00;5037780;28;19929;-83
2024/04/08 04:14:16;;;;;;;;;;;;;;;15.85;55.62;97491.91;5039066;28;20367;-82
2024/04/08 04:17:03;;;;;;;;;;;;;;;15.93;55.39;97495.59;5034503;28;19928;-83
2024/04/08 04:19:49;;;;;;;;;;;;;;;15.91;55.10;97489.69;5029008;28;19925;-84
2024/04/08 04:22:36;;;;;;;;;;;;;;;16.03;53.95;97489.56;5033763;28;19932;-81
2024/04/08 04:25:24;;;;;;;;;;;;;;;16.00;54.00;97501.25;5048247;28;20015;-83
2024/04/08 04:28:12;;;;;;;;;;;;;;;16.13;54.19;97499.16;5036635;28;19925;-82
2024/04/08 04:30:59;;;;;;;;;;;;;;;16.10;54.14;97499.91;5035036;28;19991;-82
2024/04/08 04:33:46;;;;;;;;;;;;;;;16.15;53.65;97508.63;5034366;28;19925;-81
2024/04/08 04:36:32;;;;;;;;;;;;;;;16.09;53.88;97504.59;5012199;28;20404;-82
2024/04/08 04:39:20;;;;;;;;;;;;;;;16.21;54.19;97507.22;5036807;28;20338;-83
2024/04/08 04:42:06;;;;;;;;;;;;;;;16.16;53.78;97498.47;5034352;28;20004;-82
2024/04/08 04:44:55;;;;;;;;;;;;;;;16.27;53.76;97498.69;5026795;28;19924;-81
2024/04/08 04:47:41;;;;;;;;;;;;;;;16.34;53.73;97504.34;5023288;28;19932;-77
2024/04/08 04:50:28;;;;;;;;;;;;;;;16.29;53.97;97510.09;5025802;28;19929;-88
2024/04/08 04:53:14;;;;;;;;;;;;;;;16.34;53.09;97513.34;5024703;28;19931;-90
2024/04/08 04:56:02;;;;;;;;;;;;;;;16.29;53.97;97513.63;5032572;28;20514;-89
2024/04/08 04:58:48;;;;;;;;;;;;;;;16.31;54.10;97524.25;5036672;28;19955;-73
2024/04/08 05:01:37;;;;;;;;;;;;;;;16.26;54.89;97535.50;5027862;28;19924;-75
2024/04/08 05:04:24;;;;;;;;;;;;;;;16.22;54.79;97527.97;5027668;28;20392;-74
2024/04/08 05:07:12;;;;;;;;;;;;;;;16.27;54.16;97531.59;5035545;28;20019;-73
2024/04/08 05:09:59;;;;;;;;;;;;;;;16.17;54.81;97528.25;5021481;28;19925;-77
2024/04/08 05:12:45;;;;;;;;;;;;;;;16.05;55.93;97528.38;5035411;28;19929;-82
2024/04/08 05:15:32;;;;;;;;;;;;;;;16.21;55.63;97526.38;5033834;28;20579;-75
2024/04/08 05:18:23;;;;;;;;;;;;;;;16.18;55.61;97534.53;5019037;28;19936;-82
2024/04/08 05:21:10;;;;;;;;;;;;;;;16.19;54.30;97536.94;5052871;28;19960;-91
2024/04/08 05:23:58;;;;;;;;;;;;;;;16.20;54.82;97546.72;5041708;28;19948;-90
2024/04/08 05:26:44;;;;;;;;;;;;;;;16.13;55.66;97538.31;5031266;28;19921;-93
2024/04/08 05:29:31;;;;;;;;;;;;;;;16.29;54.86;97543.78;5036290;28;19913;-93
2024/04/08 05:32:18;;;;;;;;;;;;;;;16.32;53.80;97545.81;5060364;28;19968;-91
2024/04/08 05:35:08;;;;;;;;;;;;;;;16.45;53.85;97532.75;5019883;28;19932;-92
2024/04/08 05:37:54;;;;;;;;;;;;;;;16.45;53.71;97544.53;5021339;28;19929;-93
2024/04/08 05:40:42;;;;;;;;;;;;;;;16.48;53.31;97541.06;5023276;28;19925;-93
2024/04/08 05:43:28;;;;;;;;;;;;;;;16.50;53.94;97532.50;5035955;28;20384;-92
2024/04/08 05:46:18;;;;;;;;;;;;;;;16.50;53.49;97543.44;5028473;28;20308;-91
2024/04/08 05:49:04;;;;;;;;;;;;;;;16.49;53.84;97531.69;5015254;28;19929;-79
2024/04/08 05:51:53;;;;;;;;;;;;;;;16.54;54.09;97541.59;5026896;28;19979;-77
2024/04/08 05:54:39;;;;;;;;;;;;;;;16.62;53.34;97537.84;5036063;28;19932;-78
2024/04/08 05:57:26;;;;;;;;;;;;;;;16.64;53.49;97530.06;5036154;28;19924;-78
2024/04/08 06:00:12;;;;;;;;;;;;;;;16.72;53.29;97537.31;5036827;28;20007;-80
2024/04/08 06:02:59;;;;;;;;;;;;;;;16.79;53.57;97544.91;5022179;28;19925;-77
2024/04/08 06:05:47;;;;;;;;;;;;;;;16.69;53.82;97554.47;5024972;28;19935;-79
2024/04/08 06:08:35;;;;;;;;;;;;;;;16.81;53.44;97561.78;5033081;28;20031;-81
2024/04/08 06:11:22;;;;;;;;;;;;;;;16.84;53.50;97558.31;5036499;28;19924;-77
2024/04/08 06:14:09;;;;;;;;;;;;;;;16.86;53.88;97569.72;5035636;28;19954;-76
2024/04/08 06:16:58;;;;;;;;;;;;;;;16.82;53.47;97568.84;5027652;28;19925;-80
2024/04/08 06:19:46;;;;;;;;;;;;;;;16.85;53.19;97565.41;5031288;28;19939;-77
2024/04/08 06:22:35;;;;;;;;;;;;;;;16.85;53.89;97568.13;5032567;28;19925;-77
2024/04/08 06:25:25;;;;;;;;;;;;;;;16.88;53.59;97566.59;5036311;28;20323;-79
2024/04/08 06:28:13;;;;;;;;;;;;;;;17.01;53.68;97571.59;5018540;28;20432;-75
2024/04/08 06:30:59;;;;;;;;;;;;;;;17.11;53.65;97563.94;5032403;28;20319;-85
2024/04/08 06:33:46;;;;;;;;;;;;;;;17.22;53.20;97565.75;5047822;28;19925;-85
2024/04/08 06:36:32;;;;;;;;;;;;;;;17.32;53.01;97569.06;5040517;28;20315;-84
2024/04/08 06:39:21;;;;;;;;;;;;;;;17.29;52.79;97560.38;5027997;28;19924;-85
2024/04/08 06:42:09;;;;;;;;;;;;;;;17.39;52.42;97563.69;5035384;28;19932;-85
2024/04/08 06:44:55;;;;;;;;;;;;;;;17.55;52.56;97561.63;5032764;28;19925;-87
2024/04/08 06:47:43;;;;;;;;;;;;;;;17.67;51.60;97555.94;5025212;28;19925;-85
2024/04/08 06:50:29;;;;;;;;;;;;;;;17.98;51.01;97559.63;5031973;28;19925;-85
2024/04/08 06:53:20;;;;;;;;;;;;;;;18.19;50.41;97559.97;5047115;28;19924;-85
2024/04/08 06:56:06;;;;;;;;;;;;;;;18.37;50.19;97562.19;5045163;28;20109;-85
2024/04/08 06:58:54;;;;;;;;;;;;;;;18.54;49.95;97561.66;5042356;28;19948;-79
2024/04/08 07:01:40;;;;;;;;;;;;;;;18.11;50.29;97566.53;5044465;28;19992;-78
2024/04/08 07:04:27;;;;;;;;;;;;;;;18.42;48.78;97572.84;5016629;28;19933;-76
2024/04/08 07:07:13;;;;;;;;;;;;;;;18.53;49.16;97565.53;5038569;28;19931;-76
2024/04/08 07:10:01;;;;;;;;;;;;;;;18.71;49.50;97569.38;5036660;28;20350;-78
2024/04/08 07:12:47;;;;;;;;;;;;;;;18.67;49.85;97564.97;5030468;28;19925;-78
2024/04/08 07:15:35;;;;;;;;;;;;;;;18.68;49.71;97572.06;5026600;28;19924;-77
2024/04/08 07:18:21;;;;;;;;;;;;;;;18.93;49.23;97577.91;5036445;28;19933;-76
2024/04/08 07:21:09;;;;;;;;;;;;;;;18.96;48.87;97577.16;5030665;28;19951;-76
2024/04/08 07:23:55;;;;;;;;;;;;;;;19.11;48.35;97578.91;5023521;28;19936;-76
2024/04/08 07:26:42;;;;;;;;;;;;;;;19.07;48.79;97572.59;5028364;28;20292;-76
2024/04/08 07:29:28;;;;;;;;;;;;;;;19.26;47.67;97572.41;5037684;28;20360;-77
2024/04/08 07:32:17;;;;;;;;;;;;;;;19.34;48.68;97565.03;5037444;28;19925;-77
2024/04/08 07:35:04;;;;;;;;;;;;;;;19.48;48.12;97558.84;5037478;28;20412;-76
2024/04/08 07:37:51;;;;;;;;;;;;;;;19.45;47.45;97560.41;5037913;28;19925;-76
2024/04/08 07:40:37;;;;;;;;;;;;;;;19.60;48.29;97561.34;5015335;28;19925;-79
2024/04/08 07:43:25;;;;;;;;;;;;;;;19.91;47.74;97559.28;5016355;28;19979;-77
2024/04/08 07:46:11;;;;;;;;;;;;;;;20.20;47.29;97565.81;5030867;28;19932;-77
2024/04/08 07:48:59;;;;;;;;;;;;;;;20.31;45.53;97556.44;5033969;28;19959;-76
2024/04/08 07:51:46;;;;;;;;;;;;;;;20.36;45.87;97547.81;5035343;28;19964;-77
2024/04/08 07:54:33;;;;;;;;;;;;;;;20.03;48.32;97547.97;5037320;28;19980;-77
2024/04/08 07:57:20;;;;;;;;;;;;;;;20.26;46.24;97553.25;5034219;28;19978;-76
2024/04/08 08:00:07;;;;;;;;;;;;;;;20.41;45.92;97544.69;5021435;28;19924;-76
2024/04/08 08:02:59;;;;;;;;;;;;;;;20.34;46.46;97541.84;5031715;28;20330;-79
2024/04/08 08:05:47;;;;;;;;;;;;;;;20.71;44.11;97540.91;5032228;28;19929;-77
2024/04/08 08:08:34;;;;;;;;;;;;;;;20.88;44.36;97547.72;5016664;28;19925;-83
2024/04/08 08:11:21;;;;;;;;;;;;;;;21.32;43.10;97541.19;5032727;28;19933;-84
2024/04/08 08:14:08;;;;;;;;;;;;;;;21.33;43.25;97554.59;5032351;28;19924;-84
2024/04/08 08:16:55;;;;;;;;;;;;;;;21.49;43.05;97556.22;5044007;28;19947;-83
2024/04/08 08:19:42;;;;;;;;;;;;;;;21.72;40.81;97542.81;5029312;28;19932;-84
2024/04/08 08:22:31;;;;;;;;;;;;;;;21.82;41.17;97547.56;5023542;28;19925;-83
2024/04/08 08:25:18;;;;;;;;;;;;;;;21.78;41.54;97548.75;5030772;28;19964;-83
2024/04/08 08:28:06;;;;;;;;;;;;;;;21.74;40.58;97551.53;5021608;28;19925;-83
2024/04/08 08:30:53;;;;;;;;;;;;;;;21.71;41.42;97557.81;5043596;28;19932;-82
2024/04/08 08:33:41;;;;;;;;;;;;;;;21.73;39.71;97551.88;5035528;28;19925;-83
2024/04/08 08:36:28;;;;;;;;;;;;;;;22.16;39.82;97550.75;5030945;28;19925;-85
2024/04/08 08:39:15;;;;;;;;;;;;;;;22.21;38.56;97547.59;5029247;28;19931;-85
2024/04/08 08:42:03;;;;;;;;;;;;;;;22.49;37.55;97541.22;5032599;28;19932;-81
2024/04/08 08:44:50;;;;;;;;;;;;;;;22.61;38.89;97548.31;5030231;28;19933;-83
2024/04/08 08:47:37;;;;;;;;;;;;;;;22.74;38.19;97549.47;5034509;28;20291;-82
2024/04/08 08:50:23;;;;;;;;;;;;;;;22.84;37.31;97544.28;5021184;28;19995;-74
2024/04/08 08:53:10;;;;;;;;;;;;;;;22.88;37.79;97551.41;5017275;28;20066;-75
2024/04/08 08:55:58;;;;;;;;;;;;;;;23.06;38.07;97550.53;5030869;28;19929;-74
2024/04/08 08:58:47;;;;;;;;;;;;;;;23.34;37.52;97536.56;5025627;28;20004;-74
2024/04/08 09:01:34;;;;;;;;;;;;;;;23.26;37.72;97543.31;5032179;28;20351;-74
2024/04/08 09:04:21;;;;;;;;;;;;;;;23.28;37.10;97552.03;5030002;28;19925;-75
2024/04/08 09:07:07;;;;;;;;;;;;;;;23.29;36.49;97534.22;5016025;28;19925;-75
2024/04/08 09:09:55;;;;;;;;;;;;;;;23.45;37.45;97523.41;5036698;28;19925;-74
2024/04/08 09:12:42;;;;;;;;;;;;;;;23.55;37.23;97520.97;5024389;28;19987;-74
2024/04/08 09:15:29;;;;;;;;;;;;;;;23.72;36.09;97522.88;5033425;28;20468;-74
2024/04/08 09:18:16;;;;;;;;;;;;;;;23.96;36.64;97529.41;5030266;28;19929;-74
2024/04/08 09:21:03;;;;;;;;;;;;;;;24.06;36.08;97525.75;5036146;28;20021;-80
2024/04/08 09:24:00;;;;;;;;;;;;;;;23.83;35.97;97515.25;5029187;28;20026;-82
2024/04/08 09:26:47;;;;;;;;;;;;;;;23.37;35.35;97510.78;5039471;28;20360;-82
2024/04/08 09:29:34;;;;;;;;;;;;;;;23.43;36.44;97506.38;5038890;28;20381;-82
2024/04/08 09:32:21;;;;;;;;;;;;;;;23.66;35.63;97505.09;5036086;28;19970;-82
2024/04/08 09:35:08;;;;;;;;;;;;;;;23.88;35.49;97505.69;5035132;28;20295;-82
2024/04/08 09:37:55;;;;;;;;;;;;;;;24.14;34.63;97507.84;5038857;28;19925;-81
2024/04/08 09:40:41;;;;;;;;;;;;;;;24.24;35.05;97506.16;5037352;28;19926;-82
2024/04/08 09:43:28;;;;;;;;;;;;;;;24.32;34.92;97507.66;5031799;28;19933;-80
2024/04/08 09:46:16;;;;;;;;;;;;;;;24.37;34.67;97500.91;5043301;28;19944;-83
2024/04/08 09:49:04;;;;;;;;;;;;;;;24.19;35.25;97510.19;5020820;28;19999;-83
2024/04/08 09:51:50;;;;;;;;;;;;;;;24.49;35.42;97498.38;5022065;28;20361;-84
2024/04/08 09:54:37;;;;;;;;;;;;;;;24.44;34.24;97498.81;5029082;28;19932;-81
2024/04/08 09:57:25;;;;;;;;;;;;;;;24.28;34.23;97491.03;5035988;28;19928;-82
2024/04/08 10:00:15;;;;;;;;;;;;;;;24.18;34.15;97500.28;5020105;28;19925;-79
2024/04/08 10:03:03;;;;;;;;;;;;;;;24.01;34.17;97490.09;5029754;28;19929;-82
2024/04/08 10:05:51;;;;;;;;;;;;;;;24.35;32.42;97489.41;5038349;28;19991;-81
2024/04/08 10:08:37;;;;;;;;;;;;;;;24.54;32.69;97495.16;5025509;28;20277;-80
2024/04/08 10:11:24;;;;;;;;;;;;;;;24.64;32.20;97489.88;5030641;28;19932;-81
2024/04/08 10:14:17;;;;;;;;;;;;;;;24.49;32.85;97487.28;5033771;28;19925;-81
2024/04/08 10:17:04;;;;;;;;;;;;;;;24.82;31.79;97482.94;5020354;28;19925;-81
2024/04/08 10:19:52;;;;;;;;;;;;;;;25.00;31.67;97477.13;5027948;28;19925;-80
2024/04/08 10:22:39;;;;;;;;;;;;;;;25.18;30.65;97482.47;5029011;28;19925;-80
2024/04/08 10:25:33;;;;;;;;;;;;;;;24.87;29.15;97464.97;5022227;28;19925;-80
2024/04/08 10:28:23;;;;;;;;;;;;;;;24.93;29.33;97463.34;5031724;28;19940;-75
2024/04/08 10:31:09;;;;;;;;;;;;;;;25.20;30.11;97462.59;5035472;28;19947;-74
2024/04/08 10:33:56;;;;;;;;;;;;;;;24.83;31.46;97462.28;5037167;28;19925;-75
2024/04/08 10:36:43;;;;;;;;;;;;;;;25.17;30.88;97453.09;5043044;28;19925;-75
2024/04/08 10:39:31;;;;;;;;;;;;;;;25.17;30.23;97443.97;5035646;28;19928;-74
2024/04/08 10:42:18;;;;;;;;;;;;;;;25.13;29.57;97446.00;5036554;28;20012;-74
2024/04/08 10:45:06;;;;;;;;;;;;;;;25.33;29.34;97444.91;5027867;28;19925;-76
2024/04/08 10:47:55;;;;;;;;;;;;;;;25.50;30.28;97445.06;5029347;28;19931;-74
2024/04/08 10:50:42;;;;;;;;;;;;;;;25.55;30.52;97442.56;5032013;28;20372;-76
2024/04/08 10:53:30;;;;;;;;;;;;;;;25.64;30.61;97444.03;5035513;28;19966;-78
2024/04/08 10:56:18;;;;;;;;;;;;;;;25.73;30.88;97447.09;5029557;28;19929;-77
2024/04/08 10:59:04;;;;;;;;;;;;;;;25.65;30.09;97435.28;5010473;28;19925;-76
2024/04/08 11:01:52;;;;;;;;;;;;;;;25.41;30.64;97431.69;5031936;28;20012;-77
2024/04/08 11:04:38;;;;;;;;;;;;;;;25.63;29.89;97434.91;5031976;28;19932;-79
2024/04/08 11:07:28;;;;;;;;;;;;;;;25.64;30.91;97430.13;5029733;28;19940;-77
2024/04/08 11:10:17;;;;;;;;;;;;;;;25.76;30.04;97435.13;5040692;28;19925;-84
2024/04/08 11:13:04;;;;;;;;;;;;;;;25.78;29.63;97432.69;5028625;28;19932;-84
2024/04/08 11:15:50;;;;;;;;;;;;;;;25.78;30.12;97432.69;5012664;28;20496;-84
2024/04/08 11:18:37;;;;;;;;;;;;;;;25.55;29.26;97430.66;5041305;28;19957;-83
2024/04/08 11:21:24;;;;;;;;;;;;;;;25.83;29.48;97426.63;5030462;28;19924;-84
2024/04/08 11:24:11;;;;;;;;;;;;;;;25.92;28.41;97431.66;5042495;28;19924;-85
2024/04/08 11:27:00;;;;;;;;;;;;;;;25.93;28.23;97425.66;5030381;28;19986;-84
2024/04/08 11:29:47;;;;;;;;;;;;;;;25.99;28.71;97432.31;5024090;28;20072;-85
2024/04/08 11:32:34;;;;;;;;;;;;;;;26.02;27.81;97425.13;5038169;28;19928;-84
2024/04/08 11:35:21;;;;;;;;;;;;;;;25.90;28.22;97429.31;5038921;28;19924;-85
2024/04/08 11:38:15;;;;;;;;;;;;;;;25.85;26.21;97427.00;5040754;28;19925;-84
2024/04/08 11:41:01;;;;;;;;;;;;;;;26.01;26.57;97418.78;5032412;28;20076;-77
2024/04/08 11:43:50;;;;;;;;;;;;;;;26.00;25.06;97419.19;5020579;28;19932;-77
2024/04/08 11:46:37;;;;;;;;;;;;;;;25.95;24.80;97414.91;5024485;28;19929;-76
2024/04/08 11:49:24;;;;;;;;;;;;;;;26.25;26.23;97411.16;5030677;28;19983;-77
2024/04/08 11:52:12;;;;;;;;;;;;;;;26.32;25.96;97426.94;5030568;28;19925;-77
2024/04/08 11:54:59;;;;;;;;;;;;;;;26.40;24.06;97420.00;5024993;28;19925;-77
2024/04/08 11:57:45;;;;;;;;;;;;;;;26.36;25.68;97422.84;5018653;28;20019;-77
2024/04/08 12:00:34;;;;;;;;;;;;;;;26.18;24.57;97416.84;5033593;28;19924;-77
2024/04/08 12:03:20;;;;;;;;;;;;;;;26.44;26.22;97417.97;5042205;28;19972;-77
2024/04/08 12:06:09;;;;;;;;;;;;;;;26.45;29.38;97416.75;5028892;28;19940;-76
2024/04/08 12:08:56;;;;;;;;;;;;;;;26.41;25.14;97418.00;5031355;28;19932;-76
2024/04/08 12:11:44;;;;;;;;;;;;;;;26.13;25.55;97411.78;5032062;28;19932;-77
2024/04/08 12:14:30;;;;;;;;;;;;;;;26.25;25.97;97399.22;5035714;28;19968;-77
2024/04/08 12:17:18;;;;;;;;;;;;;;;26.17;25.37;97398.59;5035452;28;20025;-77
2024/04/08 12:20:07;;;;;;;;;;;;;;;26.36;25.31;97405.38;5034756;28;19932;-76
2024/04/08 12:22:53;;;;;;;;;;;;;;;26.51;24.55;97406.69;5022666;28;19932;-74
2024/04/08 12:25:40;;;;;;;;;;;;;;;26.57;25.64;97393.81;5033395;28;19924;-74
2024/04/08 12:28:26;;;;;;;;;;;;;;;26.67;25.04;97407.94;5034006;28;19932;-74
2024/04/08 12:31:13;;;;;;;;;;;;;;;26.75;25.95;97395.44;5032364;28;19948;-75
2024/04/08 12:34:01;;;;;;;;;;;;;;;26.82;24.80;97398.06;5035571;28;19936;-74
2024/04/08 12:36:48;;;;;;;;;;;;;;;26.74;24.77;97391.06;5034500;28;19982;-74
2024/04/08 12:39:35;;;;;;;;;;;;;;;26.81;24.38;97385.34;5037742;28;19932;-74
2024/04/08 12:42:21;;;;;;;;;;;;;;;26.62;25.74;97384.94;5030317;28;20020;-74
2024/04/08 12:45:09;;;;;;;;;;;;;;;26.68;24.85;97382.44;5029760;28;19978;-74
2024/04/08 12:47:55;;;;;;;;;;;;;;;26.71;26.16;97375.22;5024039;28;19925;-74
2024/04/08 12:50:43;;;;;;;;;;;;;;;26.51;26.40;97378.81;5020432;28;19925;-76
2024/04/08 12:53:31;;;;;;;;;;;;;;;26.61;26.81;97377.81;5020617;28;19925;-76
2024/04/08 12:56:19;;;;;;;;;;;;;;;26.75;26.27;97368.38;5032610;28;19924;-77
2024/04/08 12:59:05;;;;;;;;;;;;;;;26.80;28.06;97375.44;5030900;28;19924;-76
2024/04/08 13:01:52;;;;;;;;;;;;;;;26.78;29.18;97361.91;5011906;28;19933;-76
2024/04/08 13:04:38;;;;;;;;;;;;;;;26.70;29.12;97368.09;5030161;28;19925;-77
2024/04/08 13:07:27;;;;;;;;;;;;;;;26.73;26.97;97367.22;5027112;28;19928;-78
2024/04/08 13:10:13;;;;;;;;;;;;;;;26.80;25.27;97359.50;5023967;28;19924;-76
2024/04/08 13:13:00;;;;;;;;;;;;;;;26.88;24.39;97358.09;5033134;28;20272;-79
2024/04/08 13:15:46;;;;;;;;;;;;;;;27.04;25.52;97356.56;5038816;28;19925;-85
2024/04/08 13:18:33;;;;;;;;;;;;;;;27.01;25.27;97346.28;5037448;28;19925;-85
2024/04/08 13:21:20;;;;;;;;;;;;;;;26.94;25.54;97343.66;5023808;28;19967;-84
2024/04/08 13:24:08;;;;;;;;;;;;;;;26.91;25.99;97339.75;5040686;28;20047;-79
2024/04/08 13:26:56;;;;;;;;;;;;;;;26.88;24.26;97343.38;5039366;28;20212;-83
2024/04/08 13:29:42;;;;;;;;;;;;;;;26.97;26.29;97340.00;5042327;28;19936;-84
2024/04/08 13:32:29;;;;;;;;;;;;;;;27.03;25.84;97347.41;5028862;28;20269;-83
2024/04/08 13:35:15;;;;;;;;;;;;;;;27.00;24.40;97342.69;5041014;28;19937;-84
2024/04/08 13:38:05;;;;;;;;;;;;;;;26.97;25.81;97340.78;5040387;28;20380;-84
2024/04/08 13:40:54;;;;;;;;;;;;;;;26.89;23.93;97342.16;5022186;28;20054;-84
2024/04/08 13:43:41;;;;;;;;;;;;;;;26.90;24.87;97343.75;5033089;28;19925;-85
2024/04/08 13:46:27;;;;;;;;;;;;;;;26.87;23.54;97333.47;5017401;28;19929;-83
2024/04/08 13:49:15;;;;;;;;;;;;;;;26.84;24.07;97339.88;5034383;28;19982;-84
2024/04/08 13:52:06;;;;;;;;;;;;;;;26.82;25.13;97337.53;5018774;28;19944;-84
2024/04/08 13:54:53;;;;;;;;;;;;;;;26.89;24.80;97340.16;5038592;28;19960;-85
2024/04/08 13:57:42;;;;;;;;;;;;;;;26.89;24.67;97337.38;5021314;28;19932;-83
2024/04/08 14:00:29;;;;;;;;;;;;;;;26.80;24.65;97336.41;5028816;28;19936;-80
2024/04/08 14:03:15;;;;;;;;;;;;;;;26.76;26.08;97336.50;5028840;28;19998;-79
2024/04/08 14:06:02;;;;;;;;;;;;;;;26.73;26.90;97333.78;5034713;28;19964;-79
2024/04/08 14:08:51;;;;;;;;;;;;;;;26.76;24.57;97327.34;5031996;28;19933;-78
2024/04/08 14:11:38;;;;;;;;;;;;;;;26.72;24.90;97337.78;5034145;28;20000;-78
2024/04/08 14:14:26;;;;;;;;;;;;;;;26.78;26.33;97333.25;5035535;28;19925;-78
2024/04/08 14:17:13;;;;;;;;;;;;;;;26.88;24.26;97340.59;5030097;28;19925;-79
2024/04/08 14:19:59;;;;;;;;;;;;;;;26.96;24.73;97339.22;5020412;28;19925;-79
2024/04/08 14:22:46;;;;;;;;;;;;;;;26.87;25.76;97339.03;5035987;28;19975;-78
2024/04/08 14:25:34;;;;;;;;;;;;;;;26.85;26.58;97341.47;5030521;28;20487;-78
2024/04/08 14:28:21;;;;;;;;;;;;;;;26.81;26.64;97340.78;5037841;28;19925;-79
2024/04/08 14:31:09;;;;;;;;;;;;;;;26.87;27.71;97334.25;5029653;28;19929;-79